Time;durP1;ratioP1;P1;durP2;ratioP2;P2;SDS_P1;SDS_P2;PMS_P1;PMS_P2;Temp;Humidity;BMP_temperature;BMP_pressure;BME280_temperature;BME280_humidity;BME280_pressure;Samples;Min_cycle;Max_cycle;Signal;HPM_P1;HPM_P2
2023/08/19 00:00:26;;;;;;;18.65;17.75;;;;;;;-141.02;77.47;41281.31;5113556;28;20228;-60
2023/08/19 00:02:52;;;;;;;18.92;18.02;;;;;;;-141.02;77.56;41258.28;5112997;27;20204;-60
2023/08/19 00:05:58;;;;;;;18.65;17.65;;;;;;;-141.02;77.98;41269.78;5112924;28;20189;-67
2023/08/19 00:08:25;;;;;;;18.50;17.60;;;;;;;-141.02;78.05;41235.25;5112619;28;20189;-64
2023/08/19 00:10:52;;;;;;;18.42;17.52;;;;;;;-141.02;78.08;41281.31;5112911;28;20204;-66
2023/08/19 00:13:19;;;;;;;18.52;17.63;;;;;;;-141.02;78.37;41277.47;5112486;28;20307;-66
2023/08/19 00:15:48;;;;;;;18.63;17.73;;;;;;;-141.02;78.83;41281.31;5112878;28;20193;-63
2023/08/19 00:18:16;;;;;;;18.75;17.85;;;;;;;-141.02;78.86;41181.53;5112573;28;20280;-66
2023/08/19 00:20:44;;;;;;;18.98;18.08;;;;;;;-141.02;78.68;41312.00;5112807;28;20569;-65
2023/08/19 00:23:11;;;;;;;18.60;17.70;;;;;;;-141.02;78.75;41323.50;5112462;28;20199;-58
2023/08/19 00:25:38;;;;;;;19.05;18.15;;;;;;;-141.02;78.65;41281.31;5112716;28;20585;-64
2023/08/19 00:31:28;;;;;;;18.75;17.85;;;;;;;-141.02;79.30;41296.66;5112804;28;20218;-62
2023/08/19 00:33:55;;;;;;;17.98;17.17;;;;;;;-141.02;79.48;41302.41;5112603;28;20221;-64
2023/08/19 00:36:22;;;;;;;18.58;17.67;;;;;;;-141.02;79.65;41287.06;5112400;28;20189;-66
2023/08/19 00:38:51;;;;;;;18.73;17.83;;;;;;;-141.02;79.67;41290.91;5112625;28;20193;-66
2023/08/19 00:41:57;;;;;;;18.83;17.92;;;;;;;-141.02;79.99;41288.97;5114625;28;20720;-63
2023/08/19 00:45:16;;;;;;;18.45;17.55;;;;;;;-141.02;79.53;41288.97;5116424;28;20192;-64
2023/08/19 00:47:45;;;;;;;18.45;17.55;;;;;;;-141.02;80.01;41296.66;5116651;28;20189;-63
2023/08/19 00:50:13;;;;;;;18.45;17.55;;;;;;;-141.02;80.02;41312.00;5116653;28;20193;-59
2023/08/19 00:52:40;;;;;;;18.77;17.88;;;;;;;-141.02;80.34;41304.31;5116235;28;20209;-63
2023/08/19 00:58:54;;;;;;;18.17;17.33;;;;;;;-141.02;80.80;41308.16;5116650;28;20662;-66
2023/08/19 01:01:22;;;;;;;18.48;17.58;;;;;;;-141.02;80.66;41296.66;5116189;27;20181;-64
2023/08/19 01:03:50;;;;;;;18.48;17.58;;;;;;;-141.02;80.39;41285.13;5116468;28;20197;-64
2023/08/19 01:06:25;;;;;;;18.60;17.70;;;;;;;-141.02;80.05;41300.50;5116323;27;20236;-62
2023/08/19 01:09:04;;;;;;;18.67;17.77;;;;;;;-141.02;80.09;41315.84;5116278;28;20189;-64
2023/08/19 01:11:49;;;;;;;18.95;18.05;;;;;;;-141.02;79.68;41319.69;5116274;28;20665;-64
2023/08/19 01:15:00;;;;;;;18.75;17.85;;;;;;;-141.02;79.76;41273.63;5115904;28;20262;-63
2023/08/19 01:17:30;;;;;;;18.60;17.70;;;;;;;-141.02;79.72;41321.59;5115850;28;20258;-66
2023/08/19 01:20:29;;;;;;;18.23;17.42;;;;;;;-141.02;79.41;41308.16;5116007;28;20185;-64
2023/08/19 01:23:03;;;;;;;18.38;17.58;;;;;;;-141.02;79.21;41292.81;5115803;28;20272;-62
2023/08/19 01:25:32;;;;;;;18.95;18.05;;;;;;;-141.02;79.27;41350.38;5115681;28;20646;-62
2023/08/19 01:28:03;;;;;;;19.60;18.60;;;;;;;-141.02;78.70;41296.66;5116036;28;20193;-64
2023/08/19 01:30:31;;;;;;;18.73;17.83;;;;;;;-141.02;79.20;41331.19;5115686;28;20197;-57
2023/08/19 01:32:58;;;;;;;18.92;18.02;;;;;;;-141.02;79.56;41342.69;5115526;28;20747;-62
2023/08/19 01:35:26;;;;;;;18.58;17.67;;;;;;;-141.02;79.45;41338.88;5115883;28;20572;-62
2023/08/19 01:37:59;;;;;;;18.88;17.98;;;;;;;-141.02;79.55;41336.94;5115432;28;20276;-66
2023/08/19 01:40:27;;;;;;;18.45;17.55;;;;;;;-141.02;79.51;41352.31;5115478;28;20662;-64
2023/08/19 01:42:56;;;;;;;18.30;17.40;;;;;;;-141.02;79.41;41325.44;5115673;28;20220;-69
2023/08/19 01:45:33;;;;;;;19.00;18.10;;;;;;;-141.02;78.99;41350.38;5115611;27;20577;-58
2023/08/19 01:48:02;;;;;;;18.75;17.85;;;;;;;-141.02;78.98;41340.78;5115570;28;20547;-64
2023/08/19 01:50:29;;;;;;;18.67;17.77;;;;;;;-141.02;79.06;41350.38;5115502;28;20200;-64
2023/08/19 01:52:56;;;;;;;18.55;17.65;;;;;;;-141.02;78.93;41348.47;5115132;28;20275;-63
2023/08/19 01:55:23;;;;;;;20.55;19.55;;;;;;;-141.02;78.80;41354.22;5115181;28;20686;-61
2023/08/19 01:57:50;;;;;;;17.98;17.17;;;;;;;-141.02;79.17;41358.06;5115272;28;20233;-57
2023/08/19 02:00:18;;;;;;;18.63;17.73;;;;;;;-141.02;79.33;41373.41;5115261;28;20280;-63
2023/08/19 02:02:45;;;;;;;18.30;17.40;;;;;;;-141.02;79.29;41361.91;5115020;28;20663;-63
2023/08/19 02:05:14;;;;;;;19.00;18.10;;;;;;;-141.02;79.10;41379.16;5114860;28;20284;-61
2023/08/19 02:07:41;;;;;;;18.88;17.98;;;;;;;-141.02;78.86;41381.09;5115208;28;20228;-58
2023/08/19 02:10:09;;;;;;;18.70;17.80;;;;;;;-141.02;79.24;41394.50;5115461;28;20197;-60
2023/08/19 02:12:36;;;;;;;18.58;17.67;;;;;;;-141.02;79.16;41388.75;5115166;28;20197;-64
2023/08/19 02:15:03;;;;;;;18.67;17.77;;;;;;;-141.02;79.41;41392.59;5114728;28;20227;-65
2023/08/19 02:17:31;;;;;;;18.67;17.77;;;;;;;-141.02;79.51;41400.28;5114681;28;20197;-60
2023/08/19 02:19:58;;;;;;;18.65;17.75;;;;;;;-141.02;79.06;41411.78;5114977;28;20200;-67
2023/08/19 02:22:25;;;;;;;18.38;17.48;;;;;;;-141.02;78.89;41392.59;5114911;28;20197;-66
2023/08/19 02:25:20;;;;;;;18.92;18.02;;;;;;;-141.02;78.57;41396.44;5114860;28;20287;-58
2023/08/19 02:27:49;;;;;;;18.42;17.52;;;;;;;-141.02;77.84;41409.88;5114759;28;20194;-63
2023/08/19 02:30:16;;;;;;;18.65;17.75;;;;;;;-141.02;78.34;41402.19;5114777;28;20197;-60
2023/08/19 02:32:44;;;;;;;18.60;17.70;;;;;;;-141.02;78.45;41423.28;5114668;28;20554;-60
2023/08/19 02:35:19;;;;;;;18.70;17.80;;;;;;;-141.02;77.71;41384.91;5114299;28;20235;-63
2023/08/19 02:38:18;;;;;;;18.30;17.50;;;;;;;-141.02;77.51;41404.09;5052413;28;20199;-62
2023/08/19 02:40:49;;;;;;;18.17;17.38;;;;;;;-141.02;77.07;41411.78;5109792;28;20639;-63
2023/08/19 02:50:55;;;;;;;18.65;17.75;;;;;;;-141.02;74.80;41411.78;5114628;28;20188;-65
2023/08/19 02:56:45;;;;;;;18.70;17.80;;;;;;;-141.02;73.33;41455.91;5113530;28;20753;-63
2023/08/19 02:59:12;;;;;;;18.33;17.52;;;;;;;-141.02;73.23;41455.91;5114203;28;20193;-63
2023/08/19 03:01:39;;;;;;;18.65;17.75;;;;;;;-141.02;72.54;41463.59;5114241;28;20275;-63
2023/08/19 03:04:07;;;;;;;18.75;17.85;;;;;;;-141.02;72.16;41477.03;5113492;28;20653;-63
2023/08/19 03:06:51;;;;;;;18.65;17.75;;;;;;;-141.02;72.02;41492.38;5113757;28;20226;-65
2023/08/19 03:09:28;;;;;;;18.67;17.77;;;;;;;-141.02;72.15;41477.03;5113703;28;20272;-66
2023/08/19 03:11:57;;;;;;;19.05;18.15;;;;;;;-141.02;71.86;41496.22;5113539;28;20224;-61
2023/08/19 03:14:23;;;;;;;18.90;18.00;;;;;;;-141.02;71.93;41519.25;5114085;28;20597;-64
2023/08/19 03:16:50;;;;;;;18.65;17.75;;;;;;;-141.02;71.74;41546.13;5113560;28;20229;-62
2023/08/19 03:19:17;;;;;;;18.65;17.75;;;;;;;-141.02;71.49;41553.78;5113591;28;20195;-60
2023/08/19 03:21:44;;;;;;;18.70;17.80;;;;;;;-141.02;71.79;41596.00;5113508;28;20197;-61
2023/08/19 03:24:11;;;;;;;18.65;17.75;;;;;;;-141.02;71.61;41599.84;5113412;28;20200;-60
2023/08/19 03:26:38;;;;;;;18.70;17.80;;;;;;;-141.02;71.53;41632.47;5113635;28;20197;-61
2023/08/19 03:29:06;;;;;;;18.80;17.90;;;;;;;-141.02;71.52;41684.28;5113656;28;20207;-60
2023/08/19 03:31:33;;;;;;;18.80;17.90;;;;;;;-141.02;71.34;41716.91;5113183;28;20584;-61
2023/08/19 03:34:33;;;;;;;18.55;17.65;;;;;;;-141.02;71.52;41764.88;5113463;28;20224;-64
2023/08/19 03:37:00;;;;;;;18.50;17.60;;;;;;;-141.02;71.50;41793.69;5113234;28;20203;-59
2023/08/19 03:39:27;;;;;;;18.23;17.33;;;;;;;-141.02;71.31;41835.91;5113194;28;20228;-57
2023/08/19 03:41:54;;;;;;;18.27;17.38;;;;;;;-141.02;71.37;41858.94;5113328;28;20243;-66
2023/08/19 03:44:22;;;;;;;18.20;17.40;;;;;;;-141.02;71.26;41899.22;5113372;28;20193;-59
2023/08/19 03:46:49;;;;;;;18.38;17.48;;;;;;;-141.02;71.38;41941.44;5113241;28;20284;-60
2023/08/19 03:49:16;;;;;;;20.95;19.75;;;;;;;-141.02;71.12;41995.19;5113243;28;20229;-59
2023/08/19 03:51:43;;;;;;;18.48;17.58;;;;;;;-141.02;71.38;42056.59;5113369;28;20296;-65
2023/08/19 03:54:10;;;;;;;18.20;17.30;;;;;;;-141.02;71.68;42102.66;5112783;28;20604;-64
2023/08/19 03:56:37;;;;;;;18.52;17.63;;;;;;;-141.02;71.51;42164.09;5112699;28;20228;-62
2023/08/19 03:59:04;;;;;;;18.05;17.15;;;;;;;-141.02;71.61;42190.97;5113025;28;20287;-60
2023/08/19 04:01:33;;;;;;;17.88;16.98;;;;;;;-141.02;71.49;42225.50;5112858;28;20667;-58
2023/08/19 04:04:00;;;;;;;18.30;17.40;;;;;;;-141.02;71.12;42298.44;5112989;28;20284;-61
2023/08/19 04:06:27;;;;;;;18.13;17.23;;;;;;;-141.02;70.78;42432.81;5112728;28;20748;-64
2023/08/19 04:08:54;;;;;;;18.48;17.58;;;;;;;-141.02;70.20;42513.44;5112950;28;20573;-63
2023/08/19 04:11:21;;;;;;;18.23;17.33;;;;;;;-141.02;69.59;42551.81;5112649;28;20677;-59
2023/08/19 04:13:47;;;;;;;18.30;17.40;;;;;;;-141.02;69.14;42553.75;5112532;28;20242;-64
2023/08/19 04:16:14;;;;;;;18.42;17.52;;;;;;;-141.02;68.85;42557.59;5111896;28;20291;-63
2023/08/19 04:18:43;;;;;;;18.35;17.45;;;;;;;-141.02;68.51;42571.03;5112802;28;20225;-63
2023/08/19 04:21:10;;;;;;;18.48;17.58;;;;;;;-141.02;67.88;42563.34;5112620;28;20222;-63
2023/08/19 04:23:37;;;;;;;17.98;17.08;;;;;;;-141.02;67.51;42571.03;5112763;28;20190;-57
2023/08/19 04:26:04;;;;;;;17.65;16.75;;;;;;;-141.02;67.70;42572.94;5112765;28;20203;-59
2023/08/19 04:28:31;;;;;;;18.02;17.13;;;;;;;-141.02;67.26;42630.53;5112482;28;20232;-63
2023/08/19 04:31:03;;;;;;;17.00;16.20;;;;;;;-141.02;67.00;42611.34;5112441;28;20232;-58
2023/08/19 04:33:30;;;;;;;17.92;17.02;;;;;;;-141.02;66.99;42605.56;5112383;28;20216;-60
2023/08/19 04:35:58;;;;;;;17.35;16.45;;;;;;;-141.02;66.81;42630.53;5112316;28;20267;-62
2023/08/19 04:38:26;;;;;;;17.83;16.92;;;;;;;-141.02;66.59;42611.34;5113207;28;20276;-60
2023/08/19 04:40:53;;;;;;;18.08;17.17;;;;;;;-141.02;66.22;42632.44;5112597;28;20200;-57
2023/08/19 04:43:20;;;;;;;17.65;16.75;;;;;;;-141.02;66.31;42634.38;5112289;28;20228;-57
2023/08/19 04:45:47;;;;;;;17.55;16.65;;;;;;;-141.02;66.13;42624.78;5112563;28;20196;-63
2023/08/19 04:48:15;;;;;;;17.08;16.27;;;;;;;-141.02;66.19;42643.97;5112331;28;20639;-62
2023/08/19 04:50:41;;;;;;;17.00;16.20;;;;;;;-141.02;66.29;42640.13;5112608;28;20262;-60
2023/08/19 04:53:10;;;;;;;18.60;17.60;;;;;;;-141.02;66.27;42659.31;5112167;28;20197;-59
2023/08/19 04:55:37;;;;;;;17.05;16.25;;;;;;;-141.02;66.27;42642.03;5112188;28;20698;-65
2023/08/19 04:58:04;;;;;;;17.02;16.23;;;;;;;-141.02;66.20;42632.44;5112056;28;20233;-61
2023/08/19 05:00:31;;;;;;;17.42;16.52;;;;;;;-141.02;66.39;42634.38;5112154;28;20198;-61
2023/08/19 05:02:58;;;;;;;17.27;16.48;;;;;;;-141.02;66.54;42628.63;5112417;28;20193;-59
2023/08/19 05:05:26;;;;;;;17.08;16.27;;;;;;;-141.02;66.16;42640.13;5112102;28;20199;-59
2023/08/19 05:07:52;;;;;;;17.25;16.45;;;;;;;-141.02;66.60;42636.28;5112429;28;20327;-61
2023/08/19 05:10:21;;;;;;;17.17;16.38;;;;;;;-141.02;66.33;42643.97;5112021;28;20576;-58
2023/08/19 05:12:48;;;;;;;17.20;16.40;;;;;;;-141.02;65.78;42659.31;5112016;28;20193;-58
2023/08/19 05:15:15;;;;;;;17.50;16.70;;;;;;;-141.02;65.84;42632.44;5112147;28;20235;-61
2023/08/19 05:17:42;;;;;;;17.80;17.00;;;;;;;-141.02;66.07;42624.78;5111984;28;20685;-64
2023/08/19 05:20:09;;;;;;;17.27;16.48;;;;;;;-141.02;66.13;42642.03;5112000;28;20196;-65
2023/08/19 05:22:36;;;;;;;17.40;16.60;;;;;;;-141.02;66.13;42628.63;5111835;28;20193;-62
2023/08/19 05:25:05;;;;;;;17.55;16.75;;;;;;;-141.02;66.32;42643.97;5112282;28;20655;-61
2023/08/19 05:27:33;;;;;;;17.23;16.42;;;;;;;-141.02;66.24;42620.94;5114188;28;20204;-58
2023/08/19 05:30:00;;;;;;;17.10;16.30;;;;;;;-141.02;65.04;42613.25;5115996;28;20197;-64
2023/08/19 05:32:27;;;;;;;17.50;16.70;;;;;;;-141.02;65.94;42609.41;5115867;28;20189;-60
2023/08/19 05:34:54;;;;;;;17.30;16.50;;;;;;;-141.02;66.25;42624.78;5115825;28;20233;-64
2023/08/19 05:37:21;;;;;;;17.45;16.65;;;;;;;-141.02;65.84;42620.94;5115535;28;20662;-64
2023/08/19 05:39:49;;;;;;;17.63;16.83;;;;;;;-141.02;65.49;42622.84;5115760;28;20234;-60
2023/08/19 05:42:16;;;;;;;17.95;17.05;;;;;;;-141.02;65.43;42590.22;5115447;28;20712;-62
2023/08/19 05:44:44;;;;;;;18.05;17.15;;;;;;;-141.02;65.39;42617.09;5115366;28;20194;-67
2023/08/19 05:47:11;;;;;;;17.92;17.02;;;;;;;-141.02;64.90;42643.97;5115949;28;20201;-61
2023/08/19 05:49:38;;;;;;;18.38;17.58;;;;;;;-141.02;64.38;42655.47;5115327;28;20350;-58
2023/08/19 05:52:05;;;;;;;18.10;17.20;;;;;;;-141.02;64.01;42626.69;5115207;27;20239;-65
2023/08/19 05:54:32;;;;;;;18.23;17.33;;;;;;;-141.02;63.28;42624.78;5115184;28;20221;-60
2023/08/19 05:56:59;;;;;;;18.40;17.50;;;;;;;-141.02;63.37;42605.56;5114968;28;20604;-66
2023/08/19 05:59:26;;;;;;;18.55;17.67;;;;;;;-141.02;61.72;42601.72;5115175;28;20279;-61
2023/08/19 06:01:54;;;;;;;17.38;16.58;;;;;;;-141.02;62.14;42584.47;5115046;28;20571;-64
2023/08/19 06:04:21;;;;;;;17.00;16.20;;;;;;;-141.02;61.74;42586.38;5115306;28;20702;-60
2023/08/19 06:06:48;;;;;;;17.30;16.48;;;;;;;-141.02;61.28;42626.69;5114943;28;20270;-66
2023/08/19 06:09:15;;;;;;;17.55;16.65;;;;;;;-141.02;60.50;42590.22;5114871;28;20677;-64
2023/08/19 06:11:49;;;;;;;17.38;16.48;;;;;;;-141.02;60.08;42595.97;5115180;28;20196;-61
2023/08/19 06:14:16;;;;;;;17.23;16.42;;;;;;;-141.02;60.52;42628.63;5115103;28;20188;-66
2023/08/19 06:16:43;;;;;;;17.50;16.60;;;;;;;-141.02;60.85;42578.69;5114746;28;20204;-67
2023/08/19 06:19:11;;;;;;;16.92;16.13;;;;;;;-141.02;59.38;42594.06;5115008;28;20193;-64
2023/08/19 06:21:39;;;;;;;17.38;16.48;;;;;;;-141.02;59.46;42582.53;5114949;28;20193;-64
2023/08/19 06:24:06;;;;;;;17.33;16.42;;;;;;;-141.02;59.44;42574.88;5114596;28;20652;-63
2023/08/19 06:26:33;;;;;;;17.13;16.33;;;;;;;-141.02;59.25;42574.88;5114541;28;20201;-65
2023/08/19 06:29:00;;;;;;;17.05;16.25;;;;;;;-141.02;59.35;42571.03;5114900;28;20276;-66
2023/08/19 06:31:27;;;;;;;16.98;16.17;;;;;;;-141.02;59.07;42582.53;5114444;28;20284;-62
2023/08/19 06:33:55;;;;;;;17.45;16.65;;;;;;;-141.02;59.15;42574.88;5114417;28;20279;-67
2023/08/19 06:36:25;;;;;;;17.10;16.30;;;;;;;-141.02;58.71;42567.19;5114307;28;20224;-64
2023/08/19 06:39:03;;;;;;;17.15;16.35;;;;;;;-141.02;59.15;42555.66;5113303;28;20224;-58
2023/08/19 06:41:34;;;;;;;16.95;16.15;;;;;;;-141.02;59.14;42580.63;5114697;28;20188;-58
2023/08/19 06:44:03;;;;;;;17.00;16.20;;;;;;;-141.02;59.72;42548.00;5114221;28;20189;-67
2023/08/19 06:46:32;;;;;;;17.08;16.27;;;;;;;-141.02;59.33;42521.13;5114515;28;20220;-66
2023/08/19 06:49:00;;;;;;;16.90;16.10;;;;;;;-141.02;59.49;42540.31;5114417;28;20197;-66
2023/08/19 06:51:29;;;;;;;16.67;15.88;;;;;;;-141.02;59.31;42567.19;5114084;28;20284;-65
2023/08/19 06:53:56;;;;;;;16.77;15.98;;;;;;;-141.02;60.24;42542.22;5114282;28;20276;-65
2023/08/19 06:56:30;;;;;;;16.90;16.10;;;;;;;-141.02;60.29;42536.47;5114019;28;20233;-66
2023/08/19 06:59:09;;;;;;;16.80;16.00;;;;;;;-141.02;60.81;42563.34;5113892;28;20559;-66
2023/08/19 07:01:41;;;;;;;16.90;16.10;;;;;;;-141.02;60.73;42590.22;5114201;28;20273;-66
2023/08/19 07:04:08;;;;;;;16.83;16.02;;;;;;;-141.02;60.91;42626.69;5114098;28;20185;-67
2023/08/19 07:06:38;;;;;;;16.92;16.13;;;;;;;-141.02;60.31;42615.16;5114075;28;20205;-65
2023/08/19 07:09:07;;;;;;;16.92;16.13;;;;;;;-141.02;59.98;42586.38;5113712;28;20201;-67
2023/08/19 07:11:35;;;;;;;16.77;15.98;;;;;;;-141.02;59.47;42578.69;5113702;28;20655;-65
2023/08/19 07:14:03;;;;;;;16.52;15.73;;;;;;;-141.02;59.23;42613.25;5113928;28;20215;-68
2023/08/19 07:16:33;;;;;;;16.70;15.90;;;;;;;-141.02;58.62;42597.91;5113790;28;20224;-61
2023/08/19 07:19:03;;;;;;;16.63;15.82;;;;;;;-141.02;58.27;42634.38;5113829;28;20197;-66
2023/08/19 07:21:34;;;;;;;16.63;15.82;;;;;;;-141.02;58.09;42594.06;5113451;28;20189;-67
2023/08/19 07:24:03;;;;;;;16.45;15.68;;;;;;;-141.02;58.53;42657.41;5113488;28;20185;-64
2023/08/19 07:26:31;;;;;;;16.55;15.75;;;;;;;-141.02;58.07;42663.16;5113628;28;20282;-67
2023/08/19 07:28:59;;;;;;;16.65;15.85;;;;;;;-141.02;57.75;42668.94;5113326;28;20203;-64
2023/08/19 07:31:27;;;;;;;16.70;15.90;;;;;;;-141.02;57.47;42668.94;5113272;28;20580;-67
2023/08/19 07:33:54;;;;;;;16.75;15.95;;;;;;;-141.02;57.29;42686.19;5114113;28;20203;-67
2023/08/19 07:36:22;;;;;;;16.83;16.02;;;;;;;-141.02;56.79;42684.28;5113485;28;20655;-67
2023/08/19 07:38:50;;;;;;;16.90;16.10;;;;;;;-141.02;56.82;42715.00;5113165;28;20193;-63
2023/08/19 07:41:19;;;;;;;16.70;15.90;;;;;;;-141.02;56.01;42703.47;5113443;28;20193;-67
2023/08/19 07:43:46;;;;;;;16.65;15.85;;;;;;;-141.02;56.03;42747.63;5113366;28;20205;-68
2023/08/19 07:46:15;;;;;;;16.85;16.05;;;;;;;-141.02;55.63;42732.28;5113358;28;20292;-67
2023/08/19 07:48:43;;;;;;;16.83;16.02;;;;;;;-141.02;56.13;42780.25;5113314;28;20219;-66
2023/08/19 07:51:10;;;;;;;16.60;15.80;;;;;;;-141.02;55.72;42766.81;5113089;28;20226;-67
2023/08/19 07:53:36;;;;;;;16.80;16.00;;;;;;;-141.02;55.45;42801.38;5113259;28;20193;-66
2023/08/19 07:56:04;;;;;;;16.70;15.90;;;;;;;-141.02;55.23;42816.75;5112727;28;20225;-66
2023/08/19 07:58:33;;;;;;;16.60;15.80;;;;;;;-141.02;54.82;42812.91;5112694;28;20320;-67
2023/08/19 08:01:00;;;;;;;16.80;16.00;;;;;;;-141.02;55.00;42563.34;5112738;28;20720;-67
2023/08/19 08:03:27;;;;;;;16.50;15.70;;;;;;;-141.02;54.77;42822.50;5113093;28;20276;-63
2023/08/19 08:05:57;;;;;;;16.50;15.70;;;;;;;-141.02;54.53;42899.28;5112803;28;20640;-66
2023/08/19 08:08:24;;;;;;;16.55;15.75;;;;;;;-141.02;54.67;42858.97;5113065;28;20193;-67
2023/08/19 08:10:53;;;;;;;16.67;15.88;;;;;;;-141.02;54.17;42887.78;5112996;28;20229;-62
2023/08/19 08:13:20;;;;;;;16.45;15.65;;;;;;;-141.02;54.17;42931.94;5112913;28;20618;-64
2023/08/19 08:15:48;;;;;;;16.35;15.55;;;;;;;-141.02;53.48;42958.81;5112789;28;20229;-59
2023/08/19 08:18:16;;;;;;;16.35;15.55;;;;;;;-141.02;53.00;42933.84;5112539;28;20239;-67
2023/08/19 08:20:43;;;;;;;16.42;15.63;;;;;;;-141.02;53.46;43016.41;5112522;28;20193;-59
2023/08/19 08:23:11;;;;;;;16.30;15.50;;;;;;;-141.02;53.16;42991.44;5112806;28;20224;-62
2023/08/19 08:25:38;;;;;;;16.50;15.70;;;;;;;-141.02;52.55;42983.75;5112455;28;20644;-67
2023/08/19 08:28:06;;;;;;;16.13;15.43;;;;;;;-141.02;53.55;43045.19;5112733;28;20208;-61
2023/08/19 08:30:33;;;;;;;16.38;15.57;;;;;;;-141.02;52.02;43012.56;5112709;28;20292;-63
2023/08/19 08:33:02;;;;;;;16.60;15.80;;;;;;;-141.02;53.14;43058.63;5112442;28;20659;-60
2023/08/19 08:35:29;;;;;;;16.52;15.73;;;;;;;-141.02;52.99;43108.56;5112575;28;20235;-64
2023/08/19 08:37:56;;;;;;;16.55;15.75;;;;;;;-141.02;52.36;43022.16;5112634;28;20254;-67
2023/08/19 08:40:23;;;;;;;16.45;15.65;;;;;;;-141.02;53.05;43097.03;5112392;28;20192;-59
2023/08/19 08:42:52;;;;;;;16.25;15.45;;;;;;;-141.02;53.05;43146.94;5112861;28;20574;-60
2023/08/19 08:45:21;;;;;;;15.90;15.20;;;;;;;-141.02;53.36;43123.91;5112247;28;20279;-67
2023/08/19 08:47:48;;;;;;;16.23;15.43;;;;;;;-141.02;52.38;43123.91;5112469;28;20197;-67
2023/08/19 08:50:18;;;;;;;16.10;15.40;;;;;;;-141.02;51.72;43150.78;5112563;28;20201;-68
2023/08/19 08:52:45;;;;;;;16.27;15.57;;;;;;;-141.02;50.97;43177.66;5112496;28;20573;-67
2023/08/19 08:55:13;;;;;;;16.20;15.43;;;;;;;-141.02;50.61;43177.66;5112726;28;20632;-67
2023/08/19 08:57:40;;;;;;;16.63;15.82;;;;;;;-141.02;50.47;43202.63;5112036;28;20297;-67
2023/08/19 09:00:11;;;;;;;16.52;15.73;;;;;;;-141.02;50.64;43175.75;5112144;28;20660;-63
2023/08/19 09:02:39;;;;;;;16.45;15.65;;;;;;;-141.02;49.39;43231.44;5114843;28;20235;-66
2023/08/19 09:05:07;;;;;;;16.42;15.63;;;;;;;-141.02;49.16;43242.94;5116107;28;20844;-67
2023/08/19 09:07:39;;;;;;;16.55;15.75;;;;;;;-141.02;49.60;43189.19;5116332;28;20283;-65
2023/08/19 09:10:12;;;;;;;16.05;15.35;;;;;;;-141.02;48.33;43098.94;5116921;28;20193;-61
2023/08/19 09:12:41;;;;;;;16.40;15.63;;;;;;;-141.02;48.16;43185.34;5116351;28;20189;-65
2023/08/19 09:15:11;;;;;;;16.67;15.88;;;;;;;-141.02;48.14;43141.19;5116273;28;20197;-59
2023/08/19 09:17:38;;;;;;;16.30;15.60;;;;;;;-141.02;47.15;43116.22;5116320;28;20197;-61
2023/08/19 09:20:07;;;;;;;16.23;15.52;;;;;;;-141.02;46.99;43175.75;5116206;28;20193;-64
2023/08/19 09:22:41;;;;;;;16.33;15.57;;;;;;;-141.02;46.88;42937.69;5116076;28;20375;-59
2023/08/19 09:25:08;;;;;;;16.52;15.73;;;;;;;-141.02;47.75;43267.91;5116127;28;20243;-62
2023/08/19 09:27:35;;;;;;;16.27;15.57;;;;;;;-141.02;46.76;43058.63;5115770;28;20274;-59
2023/08/19 09:30:02;;;;;;;16.48;15.68;;;;;;;-141.02;47.34;43083.59;5115730;28;20189;-61
2023/08/19 09:32:30;;;;;;;16.30;15.50;;;;;;;-141.02;46.37;43031.75;5115879;28;20193;-58
2023/08/19 09:35:05;;;;;;;56.83;53.72;;;;;;;-141.02;46.11;43108.56;5115565;28;20193;-61
2023/08/19 09:37:33;;;;;;;55.58;52.78;;;;;;;-141.02;46.41;43089.34;5115737;28;20224;-60
2023/08/19 09:40:07;;;;;;;41.03;38.83;;;;;;;-141.02;45.69;43154.63;5115507;28;20204;-61
2023/08/19 09:42:34;;;;;;;33.35;31.65;;;;;;;-141.02;46.38;43104.72;5115779;28;20229;-62
2023/08/19 09:45:01;;;;;;;16.25;15.55;;;;;;;-141.02;46.20;43062.47;5115682;28;20207;-59
2023/08/19 09:47:29;;;;;;;16.13;15.43;;;;;;;-141.02;46.17;43120.06;5115307;28;20233;-65
2023/08/19 09:49:58;;;;;;;19.30;18.30;;;;;;;-141.02;45.67;43131.59;5115274;28;20189;-63
2023/08/19 09:52:25;;;;;;;16.55;15.85;;;;;;;-141.02;45.08;43160.38;5115546;28;20193;-65
2023/08/19 09:54:53;;;;;;;16.42;15.73;;;;;;;-141.02;45.28;43154.63;5115431;28;20197;-60
2023/08/19 09:57:31;;;;;;;16.35;15.65;;;;;;;-141.02;45.88;43143.09;5115253;28;20236;-60
2023/08/19 09:59:59;;;;;;;16.10;15.40;;;;;;;-141.02;46.29;43241.03;5115427;28;20189;-60
2023/08/19 10:02:25;;;;;;;16.10;15.40;;;;;;;-141.02;45.76;43258.31;5115340;28;20219;-59
2023/08/19 10:04:53;;;;;;;16.02;15.32;;;;;;;-141.02;45.19;43108.56;5115247;28;20230;-62
2023/08/19 10:07:29;;;;;;;16.02;15.32;;;;;;;-141.02;45.51;43206.47;5114959;28;20661;-67
2023/08/19 10:09:57;;;;;;;16.23;15.45;;;;;;;-141.02;45.42;43315.91;5114897;28;20275;-62
2023/08/19 10:12:27;;;;;;;29.65;28.15;;;;;;;-141.02;46.21;43369.66;5114671;28;20283;-61
2023/08/19 10:14:58;;;;;;;29.80;28.30;;;;;;;-141.02;45.56;43281.34;5115084;28;20197;-62
2023/08/19 10:17:28;;;;;;;28.92;27.52;;;;;;;-141.02;45.19;43465.66;5114615;28;20651;-58
2023/08/19 10:20:05;;;;;;;29.83;28.35;;;;;;;-141.02;45.80;43496.41;5114999;28;20197;-62
2023/08/19 10:22:36;;;;;;;33.15;31.48;;;;;;;-141.02;46.88;43419.59;5114923;28;20185;-65
2023/08/19 10:25:04;;;;;;;33.33;31.63;;;;;;;-141.02;46.50;43515.59;5114884;28;20199;-66
2023/08/19 10:27:33;;;;;;;33.08;31.38;;;;;;;-141.02;45.99;43482.94;5114475;28;20189;-59
2023/08/19 10:30:00;;;;;;;32.80;31.13;;;;;;;-141.02;46.24;43504.06;5114503;28;20655;-63
2023/08/19 10:32:31;;;;;;;16.30;15.60;;;;;;;-141.02;45.13;43298.63;5114400;27;20651;-62
2023/08/19 10:35:08;;;;;;;16.55;15.85;;;;;;;-141.02;45.42;43398.47;5114470;28;20229;-60
2023/08/19 10:37:36;;;;;;;16.10;15.40;;;;;;;-141.02;44.31;43331.28;5114595;28;20284;-63
2023/08/19 10:40:08;;;;;;;16.23;15.52;;;;;;;-141.02;45.21;43267.91;5114327;28;20196;-64
2023/08/19 10:42:36;;;;;;;16.30;15.60;;;;;;;-141.02;45.83;43200.72;5114307;28;20682;-65
2023/08/19 10:45:05;;;;;;;16.38;15.57;;;;;;;-141.02;45.95;43158.47;5114540;28;20215;-59
2023/08/19 10:47:33;;;;;;;17.05;16.25;;;;;;;-141.02;45.28;43433.03;5114523;28;20189;-60
2023/08/19 10:50:04;;;;;;;16.58;15.77;;;;;;;-141.02;44.87;43408.06;5114048;27;20667;-61
2023/08/19 10:52:31;;;;;;;16.75;15.95;;;;;;;-141.02;44.63;43411.91;5114366;28;20578;-61
2023/08/19 10:55:00;;;;;;;16.42;15.70;;;;;;;-141.02;45.24;43181.50;5114308;28;20196;-66
2023/08/19 10:57:27;;;;;;;16.65;15.88;;;;;;;-141.02;45.65;43396.56;5113917;28;20240;-66
2023/08/19 10:59:57;;;;;;;16.70;15.90;;;;;;;-141.02;44.58;43546.31;5113891;28;20193;-62
2023/08/19 11:02:25;;;;;;;16.77;15.98;;;;;;;-141.02;44.55;43555.91;5113896;28;20284;-63
2023/08/19 11:04:53;;;;;;;16.77;15.98;;;;;;;-141.02;43.95;43575.13;5113815;28;20189;-61
2023/08/19 11:07:21;;;;;;;16.70;15.90;;;;;;;-141.02;45.27;43335.09;5113750;28;20193;-62
2023/08/19 11:09:49;;;;;;;16.52;15.82;;;;;;;-141.02;45.71;43158.47;5114072;27;20276;-59
2023/08/19 11:12:18;;;;;;;17.00;16.20;;;;;;;-141.02;45.56;43379.28;5114219;28;20203;-65
2023/08/19 11:14:49;;;;;;;16.25;15.55;;;;;;;-141.02;45.50;43588.56;5113665;28;20574;-62
2023/08/19 11:17:18;;;;;;;16.70;15.90;;;;;;;-141.02;44.75;43611.59;5113501;28;20261;-60
2023/08/19 11:19:46;;;;;;;16.70;15.90;;;;;;;-141.02;46.26;43269.81;5113879;28;20258;-65
2023/08/19 11:22:14;;;;;;;17.08;16.27;;;;;;;-141.02;45.13;43413.84;5113785;28;20193;-67
2023/08/19 11:24:41;;;;;;;16.80;16.00;;;;;;;-141.02;45.34;43273.66;5113275;28;20220;-60
2023/08/19 11:27:08;;;;;;;16.70;15.90;;;;;;;-141.02;45.89;43346.63;5113412;28;20193;-62
2023/08/19 11:29:39;;;;;;;16.67;15.88;;;;;;;-141.02;44.88;43406.16;5113388;28;20655;-63